createdAt,value
2019-03-20T00:00:34.247Z,101718.33
2019-03-20T00:05:36.019Z,101720.02
2019-03-20T00:10:37.772Z,101723.34
2019-03-20T00:15:39.506Z,101723.61
2019-03-20T00:20:41.169Z,101724.77
2019-03-20T00:25:42.872Z,101721.19
2019-03-20T00:30:44.575Z,101727.70
2019-03-20T00:35:46.283Z,101718.30
2019-03-20T00:40:47.989Z,101728.19
2019-03-20T00:45:49.706Z,101717.92
2019-03-20T00:50:51.483Z,101716.08
2019-03-20T00:55:53.091Z,101716.84
2019-03-20T01:00:54.658Z,101710.14
2019-03-20T01:05:56.237Z,101704.01
2019-03-20T01:10:57.858Z,101703.91
2019-03-20T01:15:59.601Z,101708.58
2019-03-20T01:21:01.268Z,101702.60
2019-03-20T01:26:03.097Z,101705.55
2019-03-20T01:31:04.874Z,101712.81
2019-03-20T01:36:06.597Z,101719.11
2019-03-20T01:41:08.333Z,101711.08
2019-03-20T01:46:09.995Z,101718.07
2019-03-20T01:51:18.969Z,101721.48
2019-03-20T01:56:20.549Z,101720.23
2019-03-20T02:01:22.438Z,101730.56
2019-03-20T02:06:24.074Z,101729.35
2019-03-20T02:11:25.924Z,101721.22
2019-03-20T02:16:27.562Z,101719.52
2019-03-20T02:21:29.173Z,101728.95
2019-03-20T02:26:30.875Z,101727.20
2019-03-20T02:31:32.619Z,101732.20
2019-03-20T02:36:34.338Z,101733.44
2019-03-20T02:41:35.932Z,101739.76
2019-03-20T02:46:37.535Z,101744.52
2019-03-20T02:51:39.119Z,101752.52
2019-03-20T02:56:40.822Z,101744.41
2019-03-20T03:01:42.542Z,101748.86
2019-03-20T03:06:44.126Z,101743.07
2019-03-20T03:11:45.874Z,101753.31
2019-03-20T03:16:47.601Z,101757.08
2019-03-20T03:21:49.241Z,101757.33
2019-03-20T03:26:50.866Z,101758.26
2019-03-20T03:31:52.497Z,101759.13
2019-03-20T03:36:54.167Z,101754.30
2019-03-20T03:41:55.729Z,101757.65
2019-03-20T03:46:57.380Z,101759.81
2019-03-20T03:51:59.127Z,101769.30
2019-03-20T03:57:00.945Z,101775.13
2019-03-20T04:02:02.643Z,101778.55
2019-03-20T04:07:04.425Z,101782.01
2019-03-20T04:12:06.137Z,101783.84
2019-03-20T04:17:24.794Z,101787.27
2019-03-20T04:22:26.357Z,101789.03
2019-03-20T04:27:28.039Z,101788.88
2019-03-20T04:32:29.802Z,101793.23
2019-03-20T04:37:31.377Z,101789.17
2019-03-20T04:42:32.995Z,101797.05
2019-03-20T04:47:34.784Z,101793.88
2019-03-20T04:52:36.621Z,101800.31
2019-03-20T04:57:38.513Z,101806.34
2019-03-20T05:02:40.292Z,101813.75
2019-03-20T05:07:41.982Z,101809.84
2019-03-20T05:12:43.690Z,101802.75
2019-03-20T05:17:45.293Z,101808.09
2019-03-20T05:22:47.189Z,101812.03
2019-03-20T05:27:48.908Z,101812.98
2019-03-20T05:32:50.495Z,101816.24
2019-03-20T05:37:52.146Z,101818.89
2019-03-20T05:42:53.739Z,101823.44
2019-03-20T05:47:55.308Z,101832.47
2019-03-20T05:52:56.911Z,101839.89
2019-03-20T05:57:58.473Z,101853.27
2019-03-20T06:03:00.041Z,101860.13
2019-03-20T06:08:01.634Z,101860.46
2019-03-20T06:13:03.310Z,101871.50
2019-03-20T06:18:04.884Z,101870.50
2019-03-20T06:23:06.573Z,101878.55
2019-03-20T06:28:08.550Z,101882.84
2019-03-20T06:33:10.247Z,101882.89
2019-03-20T06:38:11.839Z,101891.77
2019-03-20T06:43:13.445Z,101909.23
2019-03-20T06:48:15.014Z,101905.66
2019-03-20T06:53:16.749Z,101905.53
2019-03-20T06:58:18.461Z,101914.30
2019-03-20T07:03:45.463Z,101912.25
2019-03-20T07:08:54.727Z,101920.80
2019-03-20T07:13:56.293Z,101919.19
2019-03-20T07:18:57.901Z,101927.34
2019-03-20T07:23:59.645Z,101928.81
2019-03-20T07:29:01.372Z,101936.69
2019-03-20T07:34:03.137Z,101933.86
2019-03-20T07:39:07.297Z,101933.19
2019-03-20T07:44:08.918Z,101940.23
2019-03-20T07:49:10.528Z,101941.64
2019-03-20T07:54:12.127Z,101950.76
2019-03-20T07:59:13.923Z,101956.20
2019-03-20T08:04:15.816Z,101965.53
2019-03-20T08:09:17.918Z,101967.45
2019-03-20T08:14:20.025Z,101971.22
2019-03-20T08:19:21.896Z,101972.20
2019-03-20T08:24:23.485Z,101972.29
2019-03-20T08:29:25.025Z,101979.19
2019-03-20T08:34:26.565Z,101983.47
2019-03-20T08:39:28.166Z,101978.70
2019-03-20T08:44:29.703Z,101976.08
2019-03-20T08:49:31.296Z,101974.85
2019-03-20T08:54:32.857Z,101976.42
2019-03-20T08:59:34.455Z,101971.70
2019-03-20T09:04:36.057Z,101982.65
2019-03-20T09:09:38.574Z,101992.42
2019-03-20T09:14:40.319Z,101981.03
2019-03-20T09:19:41.968Z,101990.89
2019-03-20T09:24:43.548Z,101990.09
2019-03-20T09:29:45.097Z,102002.41
2019-03-20T09:34:46.642Z,102002.53
2019-03-20T09:39:48.196Z,101997.79
2019-03-20T09:44:49.769Z,101991.92
2019-03-20T09:49:51.384Z,102003.51
2019-03-20T09:55:07.061Z,101998.20
2019-03-20T10:00:14.935Z,101995.88
2019-03-20T10:05:16.571Z,101996.90
2019-03-20T10:10:19.394Z,102002.67
2019-03-20T10:15:21.042Z,101998.63
2019-03-20T10:20:22.695Z,101995.08
2019-03-20T10:25:24.249Z,101997.28
2019-03-20T10:30:25.847Z,102003.77
2019-03-20T10:35:27.406Z,102000.98
2019-03-20T10:40:29.226Z,101992.48
2019-03-20T10:45:30.970Z,101998.81
2019-03-20T10:50:32.689Z,101999.55
2019-03-20T10:55:34.452Z,101993.66
2019-03-20T11:00:36.143Z,102004.19
2019-03-20T11:05:37.783Z,101993.98
2019-03-20T11:10:39.448Z,101994.49
2019-03-20T11:15:41.133Z,101982.66
2019-03-20T11:20:42.703Z,101980.94
2019-03-20T11:25:44.503Z,101981.53
2019-03-20T11:30:46.067Z,101979.05
2019-03-20T11:35:47.597Z,101975.70
2019-03-20T11:40:49.225Z,101958.29
2019-03-20T11:45:50.833Z,101949.87
2019-03-20T11:50:52.479Z,101954.36
2019-03-20T11:55:54.263Z,101953.75
2019-03-20T12:00:55.811Z,101936.31
2019-03-20T12:05:57.381Z,101934.60
2019-03-20T12:10:58.924Z,101924.50
2019-03-20T12:16:00.689Z,101920.52
2019-03-20T12:21:02.725Z,101910.66
2019-03-20T12:26:04.597Z,101898.77
2019-03-20T12:31:06.826Z,101906.44
2019-03-20T12:36:08.658Z,101903.59
2019-03-20T12:41:10.302Z,101894.72
2019-03-20T12:46:11.943Z,101898.49
2019-03-20T12:51:13.507Z,101876.95
2019-03-20T12:56:15.040Z,101879.66
2019-03-20T13:01:16.925Z,101879.76
2019-03-20T13:06:19.901Z,101878.59
2019-03-20T13:11:21.453Z,101874.87
2019-03-20T13:16:23.027Z,101882.64
2019-03-20T13:21:25.884Z,101879.30
2019-03-20T13:26:27.843Z,101874.66
2019-03-20T13:31:29.389Z,101877.66
2019-03-20T13:36:30.956Z,101870.64
2019-03-20T13:41:32.528Z,101884.95
2019-03-20T13:46:34.076Z,101878.84
2019-03-20T13:51:35.668Z,101878.77
2019-03-20T13:56:37.286Z,101871.61
2019-03-20T14:01:38.855Z,101885.59
2019-03-20T14:06:40.512Z,101886.86
2019-03-20T14:11:42.114Z,101894.34
2019-03-20T14:16:43.786Z,101891.88
2019-03-20T14:21:45.349Z,101887.48
2019-03-20T14:26:46.947Z,101870.57
2019-03-20T14:31:48.656Z,101867.85
2019-03-20T14:36:50.273Z,101856.30
2019-03-20T14:41:52.112Z,101858.77
2019-03-20T14:46:53.793Z,101836.02
2019-03-20T14:51:55.420Z,101845.42
2019-03-20T14:56:57.027Z,101853.97
2019-03-20T15:01:58.752Z,101837.42
2019-03-20T15:07:00.330Z,101843.73
2019-03-20T15:12:02.011Z,101829.16
2019-03-20T15:17:03.660Z,101829.79
2019-03-20T15:22:05.232Z,101835.80
2019-03-20T15:27:06.824Z,101836.70
2019-03-20T15:32:08.556Z,101839.44
2019-03-20T15:37:10.126Z,101841.35
2019-03-20T15:42:11.750Z,101834.00
2019-03-20T15:47:13.441Z,101842.63
2019-03-20T15:52:15.027Z,101836.41
2019-03-20T15:57:16.656Z,101838.78
2019-03-20T16:02:18.281Z,101822.34
2019-03-20T16:07:19.996Z,101814.55
2019-03-20T16:12:21.607Z,101821.32
2019-03-20T16:17:23.504Z,101823.39
2019-03-20T16:22:25.130Z,101829.63
2019-03-20T16:27:26.842Z,101824.72
2019-03-20T16:32:28.430Z,101830.34
2019-03-20T16:37:30.142Z,101828.69
2019-03-20T16:42:31.832Z,101832.74
2019-03-20T16:47:33.400Z,101825.35
2019-03-20T16:52:34.993Z,101832.52
2019-03-20T16:57:36.683Z,101830.48
2019-03-20T17:02:38.252Z,101827.09
2019-03-20T17:07:39.817Z,101822.48
2019-03-20T17:12:41.392Z,101828.09
2019-03-20T17:17:43.003Z,101832.37
2019-03-20T17:22:44.749Z,101836.13
2019-03-20T17:27:46.420Z,101842.52
2019-03-20T17:32:48.097Z,101846.77
2019-03-20T17:37:49.845Z,101849.49
2019-03-20T17:42:51.663Z,101840.33
2019-03-20T17:47:53.762Z,101847.80
2019-03-20T17:52:55.700Z,101845.46
2019-03-20T17:57:57.417Z,101852.30
2019-03-20T18:03:00.036Z,101853.63
2019-03-20T18:08:01.960Z,101858.78
2019-03-20T18:13:03.970Z,101872.64
2019-03-20T18:18:06.284Z,101865.44
2019-03-20T18:23:07.818Z,101864.72
2019-03-20T18:28:09.402Z,101871.39
2019-03-20T18:33:10.970Z,101871.02
2019-03-20T18:38:12.727Z,101872.20
2019-03-20T18:43:14.343Z,101882.49
2019-03-20T18:48:16.021Z,101897.90
2019-03-20T18:53:17.719Z,101899.06
2019-03-20T18:58:19.368Z,101899.68
2019-03-20T19:03:21.047Z,101892.94
2019-03-20T19:08:22.770Z,101895.84
2019-03-20T19:13:24.678Z,101893.53
2019-03-20T19:18:26.357Z,101894.73
2019-03-20T19:23:28.013Z,101903.75
2019-03-20T19:28:29.693Z,101908.13
2019-03-20T19:33:31.341Z,101917.48
2019-03-20T19:38:35.213Z,101913.05
2019-03-20T19:43:36.660Z,101911.48
2019-03-20T19:48:38.553Z,101916.10
2019-03-20T19:53:40.145Z,101911.45
2019-03-20T19:58:41.771Z,101915.47
2019-03-20T20:03:43.344Z,101916.66
2019-03-20T20:08:45.736Z,101919.33
2019-03-20T20:13:47.334Z,101916.09
2019-03-20T20:18:49.078Z,101902.17
2019-03-20T20:23:50.962Z,101910.72
2019-03-20T20:28:52.565Z,101913.91
2019-03-20T20:33:54.302Z,101918.02
2019-03-20T20:38:55.890Z,101922.18
2019-03-20T20:43:57.479Z,101923.50
2019-03-20T20:49:01.981Z,101915.27
2019-03-20T20:54:03.752Z,101919.03
2019-03-20T20:59:05.451Z,101910.78
2019-03-20T21:04:07.132Z,101909.31
2019-03-20T21:09:08.702Z,101914.84
2019-03-20T21:14:10.294Z,101914.70
2019-03-20T21:19:34.230Z,101910.14
2019-03-20T21:24:36.423Z,101909.41
2019-03-20T21:30:05.221Z,101913.20
2019-03-20T21:35:50.686Z,101916.98
2019-03-20T21:41:14.092Z,101922.24
2019-03-20T21:47:16.258Z,101930.86
2019-03-20T21:52:18.409Z,101926.42
2019-03-20T21:57:34.543Z,101926.97
2019-03-20T22:02:43.130Z,101931.30
2019-03-20T22:07:45.436Z,101945.80
2019-03-20T22:13:24.026Z,101947.52
2019-03-20T22:18:59.314Z,101943.75
2019-03-20T22:24:40.855Z,101952.28
2019-03-20T22:29:43.251Z,101955.72
2019-03-20T22:35:19.185Z,101959.91
2019-03-20T22:41:04.679Z,101957.73
2019-03-20T22:46:54.591Z,101980.91
2019-03-20T22:52:28.977Z,101985.00
2019-03-20T22:57:53.253Z,101984.56
2019-03-20T23:03:01.192Z,101994.49
2019-03-20T23:08:11.748Z,101997.32
2019-03-20T23:13:18.933Z,102001.38
2019-03-20T23:18:18.133Z,102002.89
2019-03-20T23:23:20.299Z,102008.06
2019-03-20T23:28:22.945Z,102008.43
2019-03-20T23:33:25.116Z,102018.44
2019-03-20T23:38:28.680Z,102018.64
2019-03-20T23:43:31.088Z,102010.31
2019-03-20T23:48:37.374Z,102016.80
2019-03-20T23:53:43.907Z,102023.42
2019-03-20T23:58:46.163Z,102014.92
